Time;durP1;ratioP1;P1;durP2;ratioP2;P2;SDS_P1;SDS_P2;PMS_P1;PMS_P2;Temp;Humidity;BMP_temperature;BMP_pressure;BME280_temperature;BME280_humidity;BME280_pressure;Samples;Min_cycle;Max_cycle;Signal;HPM_P1;HPM_P2
2023/12/29 00:00:37;;;;;;;4.65;1.83;;;;;;;9.34;100.00;100503.28;1012562;29;20049;-54
2023/12/29 00:01:53;;;;;;;9.75;1.45;;;;;;;9.34;100.00;100508.63;1013780;29;20344;-54
2023/12/29 00:02:55;;;;;;;12.07;1.77;;;;;;;9.33;100.00;100506.19;1015068;29;20304;-47
2023/12/29 00:04:05;;;;;;;8.65;2.75;;;;;;;9.31;100.00;100495.72;1015367;29;20308;-54
2023/12/29 00:05:07;;;;;;;7.93;1.13;;;;;;;9.33;100.00;100491.03;1018148;29;20337;-55
2023/12/29 00:06:04;;;;;;;4.60;1.63;;;;;;;9.34;100.00;100503.28;1005827;29;20315;-55
2023/12/29 00:07:03;;;;;;;6.78;1.40;;;;;;;9.32;100.00;100505.38;1017529;29;21370;-46
2023/12/29 00:08:13;;;;;;;9.35;1.67;;;;;;;9.36;100.00;100489.78;1007633;29;20321;-54
2023/12/29 00:09:12;;;;;;;6.30;2.13;;;;;;;9.39;100.00;100495.47;1008012;29;20313;-55
2023/12/29 00:10:10;;;;;;;7.10;1.17;;;;;;;9.43;100.00;100486.03;1010677;29;20309;-47
2023/12/29 00:11:24;;;;;;;5.85;2.15;;;;;;;9.43;100.00;100502.00;1005680;29;20314;-55
2023/12/29 00:12:27;;;;;;;8.95;1.95;;;;;;;9.51;100.00;100490.25;1011422;29;20304;-53
2023/12/29 00:13:35;;;;;;;8.65;1.42;;;;;;;9.53;100.00;100485.53;1014333;29;20356;-48
2023/12/29 00:14:35;;;;;;;4.47;0.93;;;;;;;9.51;100.00;100479.63;999377;29;20318;-55
2023/12/29 00:16:40;;;;;;;6.63;1.50;;;;;;;9.47;100.00;100487.22;1007359;29;20321;-46
2023/12/29 00:17:52;;;;;;;11.05;1.77;;;;;;;9.49;100.00;100477.19;1016063;29;20305;-55
2023/12/29 00:20:01;;;;;;;6.82;2.30;;;;;;;9.45;100.00;100473.34;1017763;29;20354;-54
2023/12/29 00:21:14;;;;;;;10.15;2.15;;;;;;;9.44;100.00;100461.09;1012614;29;20312;-47
2023/12/29 00:22:13;;;;;;;10.50;1.60;;;;;;;9.44;100.00;100476.22;1014272;29;20176;-47
2023/12/29 00:23:45;;;;;;;14.43;1.92;;;;;;;9.46;100.00;100471.50;1008849;29;20314;-55
2023/12/29 00:24:39;;;;;;;1.50;1.00;;;;;;;9.53;100.00;100485.53;1012110;29;20325;-46
2023/12/29 00:25:51;;;;;;;12.40;1.63;;;;;;;9.54;100.00;100480.00;1008390;29;20453;-54
2023/12/29 00:26:54;;;;;;;;;;;;;;;;;;;;;
2023/12/29 00:27:44;;;;;;;10.25;1.73;;;;;;;9.55;100.00;100470.19;1004705;29;20685;-49
2023/12/29 00:28:28;;;;;;;10.40;1.48;;;;;;;9.57;100.00;100471.59;1011101;29;20410;-48
2023/12/29 00:29:32;;;;;;;4.88;1.50;;;;;;;9.61;100.00;100493.25;1002368;29;20314;-48
2023/12/29 00:30:37;;;;;;;6.13;1.17;;;;;;;9.60;100.00;100473.03;1002638;29;20421;-46
2023/12/29 00:31:37;;;;;;;8.48;1.20;;;;;;;9.60;100.00;100467.69;1004051;29;20322;-48
2023/12/29 00:32:40;;;;;;;3.92;1.10;;;;;;;9.59;100.00;100466.06;1007198;29;20361;-46
2023/12/29 00:33:56;;;;;;;2.90;0.77;;;;;;;9.63;100.00;100469.09;1001580;29;20344;-49
2023/12/29 00:35:18;;;;;;;10.93;3.00;;;;;;;9.57;100.00;100466.28;1022619;29;20307;-54
2023/12/29 00:36:23;;;;;;;9.45;1.33;;;;;;;9.56;100.00;100467.31;1027519;28;20310;-50
2023/12/29 00:37:33;;;;;;;2.35;1.15;;;;;;;9.63;100.00;100458.47;1024705;28;20677;-54
2023/12/29 00:38:45;;;;;;;5.63;1.10;;;;;;;9.59;100.00;100458.91;1025767;28;20310;-45
2023/12/29 00:39:56;;;;;;;6.10;1.15;;;;;;;9.60;100.00;100449.91;1020729;28;20331;-47
2023/12/29 00:41:14;;;;;;;7.97;2.97;;;;;;;9.67;100.00;100443.69;1028282;28;20310;-54
2023/12/29 00:44:36;;;;;;;8.20;1.50;;;;;;;9.81;100.00;100442.53;1031343;28;20317;-53
2023/12/29 00:45:52;;;;;;;7.75;2.33;;;;;;;9.71;100.00;100423.59;1006055;29;20402;-46
2023/12/29 00:46:48;;;;;;;7.43;1.45;;;;;;;9.74;100.00;100437.28;1022948;28;20327;-55
2023/12/29 00:47:50;;;;;;;4.22;1.45;;;;;;;9.73;100.00;100443.63;1018685;29;20335;-55
2023/12/29 00:48:59;;;;;;;6.13;1.13;;;;;;;9.65;100.00;100443.91;1009920;29;20309;-46
2023/12/29 00:49:40;;;;;;;1.58;1.20;;;;;;;9.71;100.00;100450.19;1011215;29;20333;-49
2023/12/29 00:50:28;;;;;;;8.15;1.05;;;;;;;9.68;100.00;100450.66;1014487;29;20336;-52
2023/12/29 00:51:22;;;;;;;6.03;1.55;;;;;;;9.66;100.00;100463.34;1013953;29;20407;-49
2023/12/29 00:52:18;;;;;;;5.88;1.92;;;;;;;9.65;100.00;100464.38;1016796;29;20330;-53
2023/12/29 00:53:20;;;;;;;14.20;1.27;;;;;;;9.50;100.00;100484.13;1026672;28;20338;-47
2023/12/29 00:54:22;;;;;;;8.23;1.42;;;;;;;9.40;100.00;100465.22;1025215;28;20306;-51
2023/12/29 00:55:28;;;;;;;7.68;1.20;;;;;;;9.28;100.00;100488.19;1021372;28;20307;-53
2023/12/29 00:58:24;;;;;;;3.58;1.20;;;;;;;9.02;100.00;100493.69;1028102;28;20286;-48
2023/12/29 00:59:15;;;;;;;7.03;1.15;;;;;;;8.97;100.00;100465.94;1023162;29;20318;-55
2023/12/29 01:00:33;;;;;;;8.93;1.42;;;;;;;8.84;100.00;100489.94;1021643;29;20079;-49
2023/12/29 01:01:45;;;;;;;13.10;2.03;;;;;;;8.82;100.00;100491.19;1021695;29;20311;-47
2023/12/29 01:02:36;;;;;;;7.63;0.82;;;;;;;8.80;100.00;100475.47;1026018;29;20449;-55
2023/12/29 01:06:32;;;;;;;11.38;1.70;;;;;;;8.72;100.00;100467.72;1023748;28;20883;-54
2023/12/29 01:07:26;;;;;;;7.78;1.70;;;;;;;8.74;100.00;100463.00;1021060;29;20770;-55
2023/12/29 01:08:30;;;;;;;;;;;;;;;8.73;100.00;100468.53;1023322;29;20378;-46
2023/12/29 01:09:23;;;;;;;7.28;1.45;;;;;;;8.71;100.00;100463.44;1016930;29;19934;-54
2023/12/29 01:10:20;;;;;;;4.90;1.63;;;;;;;8.73;100.00;100469.34;1016964;29;20731;-51
2023/12/29 01:11:13;;;;;;;7.45;1.88;;;;;;;8.74;100.00;100470.16;1024813;28;21242;-55
2023/12/29 01:12:39;;;;;;;6.43;1.10;;;;;;;8.80;100.00;100454.22;1039281;28;20300;-46
2023/12/29 01:13:28;;;;;;;8.70;2.35;;;;;;;8.86;100.00;100450.69;1032134;28;20354;-55
2023/12/29 01:14:53;;;;;;;4.75;2.03;;;;;;;8.85;100.00;100446.41;1024877;28;20302;-46
2023/12/29 01:16:02;;;;;;;3.65;1.02;;;;;;;8.88;100.00;100423.91;1027709;28;20260;-55
2023/12/29 01:16:53;;;;;;;4.78;1.30;;;;;;;8.98;100.00;100442.84;1033240;28;20329;-47
2023/12/29 01:17:55;;;;;;;4.78;1.00;;;;;;;9.06;100.00;100431.97;1034662;28;20316;-46
2023/12/29 01:18:37;;;;;;;6.18;2.10;;;;;;;9.05;100.00;100434.84;1033279;28;20313;-47
2023/12/29 01:19:44;;;;;;;7.10;2.15;;;;;;;9.07;100.00;100430.13;1033450;28;20344;-46
2023/12/29 01:20:58;;;;;;;5.47;1.10;;;;;;;9.03;100.00;100436.88;1027710;28;20314;-55
2023/12/29 01:23:27;;;;;;;5.57;1.00;;;;;;;9.03;100.00;100431.56;1039512;28;20324;-47
2023/12/29 01:24:18;;;;;;;8.80;1.70;;;;;;;9.14;100.00;100439.66;1038815;28;20375;-56
2023/12/29 01:25:28;;;;;;;3.45;1.77;;;;;;;9.20;100.00;100432.66;1030307;28;20321;-54
2023/12/29 01:26:28;;;;;;;6.70;1.00;;;;;;;9.19;100.00;100431.03;1035795;28;20807;-48
2023/12/29 01:27:51;;;;;;;10.07;1.63;;;;;;;9.30;100.00;100428.47;1028368;28;20837;-47
2023/12/29 01:28:59;;;;;;;11.00;2.55;;;;;;;9.29;100.00;100418.88;1028016;28;20314;-46
2023/12/29 01:30:00;;;;;;;7.13;1.90;;;;;;;9.29;100.00;100412.75;1023557;28;20300;-55
2023/12/29 01:31:12;;;;;;;7.38;1.63;;;;;;;9.34;100.00;100412.94;1031138;28;20340;-55
2023/12/29 01:32:11;;;;;;;5.35;1.30;;;;;;;9.29;100.00;100410.09;1024455;28;20841;-53
2023/12/29 01:32:54;;;;;;;3.10;1.27;;;;;;;9.33;100.00;100413.16;1023827;28;20323;-56
2023/12/29 01:33:41;;;;;;;8.35;1.35;;;;;;;9.33;100.00;100415.81;1026673;28;20051;-55
2023/12/29 01:34:41;;;;;;;9.32;1.20;;;;;;;9.41;100.00;100397.72;1029783;28;20306;-46
2023/12/29 01:35:47;;;;;;;5.93;2.47;;;;;;;9.42;100.00;100414.50;1034778;28;20049;-48
2023/12/29 01:36:58;;;;;;;9.50;2.05;;;;;;;9.33;100.00;100408.66;1032941;28;20897;-47
2023/12/29 01:38:01;;;;;;;3.92;1.60;;;;;;;9.39;100.00;100404.28;1029892;28;20893;-54
2023/12/29 01:39:02;;;;;;;7.65;0.90;;;;;;;9.48;100.00;100402.97;1027431;28;20318;-47
2023/12/29 01:39:45;;;;;;;5.38;1.10;;;;;;;9.54;100.00;100424.16;1027076;28;20311;-47
2023/12/29 01:40:58;;;;;;;3.80;1.05;;;;;;;9.51;100.00;100411.31;1032697;28;20353;-55
2023/12/29 01:42:23;;;;;;;5.25;2.13;;;;;;;9.50;100.00;100406.22;1036195;28;21013;-54
2023/12/29 01:43:17;;;;;;;9.13;1.08;;;;;;;9.46;100.00;100405.84;1031114;28;21240;-55
2023/12/29 01:44:22;;;;;;;4.78;1.45;;;;;;;9.44;100.00;100409.75;1029658;28;20953;-55
2023/12/29 01:45:15;;;;;;;3.95;1.20;;;;;;;9.39;100.00;100413.06;1032250;28;20316;-49
2023/12/29 01:46:11;;;;;;;5.65;1.10;;;;;;;9.44;100.00;100418.53;1032989;28;20053;-48
2023/12/29 01:47:37;;;;;;;9.60;1.23;;;;;;;9.45;100.00;100422.84;1026427;28;20310;-54
2023/12/29 01:49:19;;;;;;;7.53;1.30;;;;;;;9.42;100.00;100409.97;1038484;28;20285;-54
2023/12/29 01:50:22;;;;;;;11.68;2.42;;;;;;;9.39;100.00;100413.06;1037340;28;20392;-49
2023/12/29 01:51:30;;;;;;;4.75;1.30;;;;;;;9.37;100.00;100414.34;1035796;28;20088;-54
2023/12/29 01:52:28;;;;;;;11.75;2.17;;;;;;;9.41;100.00;100424.31;1037408;28;20300;-52
2023/12/29 01:53:27;;;;;;;7.68;1.33;;;;;;;9.41;100.00;100413.66;1027787;28;20306;-55
2023/12/29 01:54:44;;;;;;;6.35;1.30;;;;;;;9.37;100.00;100419.66;1028649;28;20298;-45
2023/12/29 01:55:53;;;;;;;7.63;1.50;;;;;;;9.37;100.00;100428.44;1029973;28;20310;-49
2023/12/29 01:56:56;;;;;;;7.32;1.20;;;;;;;9.32;100.00;100428.28;1017337;29;20826;-55
2023/12/29 01:57:48;;;;;;;8.23;1.45;;;;;;;9.31;100.00;100431.94;1025601;28;20313;-46
2023/12/29 01:58:33;;;;;;;6.53;1.35;;;;;;;9.33;100.00;100419.28;1031169;28;20906;-47
2023/12/29 01:59:14;;;;;;;9.73;1.63;;;;;;;9.32;100.00;100414.19;1025209;28;20303;-49
2023/12/29 02:00:25;;;;;;;11.88;1.52;;;;;;;9.31;100.00;100423.97;1020681;29;20335;-54
2023/12/29 02:01:19;;;;;;;4.03;1.30;;;;;;;9.32;100.00;100406.22;1023559;28;20306;-48
2023/12/29 02:02:26;;;;;;;9.18;1.55;;;;;;;9.25;100.00;100415.03;1027868;28;20335;-47
2023/12/29 02:03:26;;;;;;;4.38;1.40;;;;;;;9.26;100.00;100434.44;1028700;28;20313;-55
2023/12/29 02:04:32;;;;;;;8.05;1.75;;;;;;;9.22;100.00;100420.78;1028350;28;20298;-47
2023/12/29 02:05:30;;;;;;;12.63;2.22;;;;;;;9.23;100.00;100442.84;1032712;28;21127;-47
2023/12/29 02:06:16;;;;;;;17.63;2.78;;;;;;;9.21;100.00;100429.78;1026572;28;20685;-55
2023/12/29 02:07:03;;;;;;;9.98;1.52;;;;;;;9.19;100.00;100433.69;1025478;28;20306;-55
2023/12/29 02:08:04;;;;;;;3.90;1.02;;;;;;;9.15;100.00;100433.31;1026935;28;20833;-47
2023/12/29 02:08:51;;;;;;;4.53;1.05;;;;;;;9.20;100.00;100443.28;1029107;28;20306;-51
2023/12/29 02:09:39;;;;;;;8.18;1.60;;;;;;;9.21;100.00;100429.78;1024326;28;20310;-46
2023/12/29 02:10:39;;;;;;;7.63;1.25;;;;;;;9.19;100.00;100436.34;1024653;28;20644;-46
2023/12/29 02:11:22;;;;;;;8.10;1.15;;;;;;;9.20;100.00;100437.97;1023386;29;20303;-56
2023/12/29 02:12:37;;;;;;;8.50;1.50;;;;;;;9.19;100.00;100418.56;1030132;28;20297;-47
2023/12/29 02:15:09;;;;;;;3.63;1.02;;;;;;;9.17;100.00;100433.09;1035265;28;20339;-54
2023/12/29 02:15:53;;;;;;;7.25;1.25;;;;;;;9.19;100.00;100420.41;1021873;29;20326;-49
2023/12/29 02:16:40;;;;;;;5.38;1.20;;;;;;;9.16;100.00;100431.47;1022766;29;20373;-47
2023/12/29 02:17:29;;;;;;;6.60;4.20;;;;;;;9.20;100.00;100427.34;1030057;28;20364;-47
2023/12/29 02:20:09;;;;;;;7.13;1.40;;;;;;;9.15;100.00;100417.38;1039220;28;20289;-56
2023/12/29 02:21:12;;;;;;;4.85;1.48;;;;;;;9.14;100.00;100420.25;1039343;28;20328;-48
2023/12/29 02:21:52;;;;;;;6.40;0.93;;;;;;;9.15;100.00;100424.53;1027182;28;20337;-54
2023/12/29 02:22:41;;;;;;;11.77;1.15;;;;;;;9.16;100.00;100420.84;1021263;29;20304;-55
2023/12/29 02:23:29;;;;;;;8.02;1.67;;;;;;;9.14;100.00;100430.88;1023930;28;20311;-49
2023/12/29 02:24:17;;;;;;;12.60;1.50;;;;;;;9.10;100.00;100422.53;1028078;28;20342;-53
2023/12/29 02:25:05;;;;;;;2.97;1.20;;;;;;;9.17;100.00;100420.63;1022160;29;20036;-51
2023/12/29 02:25:50;;;;;;;3.35;1.00;;;;;;;9.14;100.00;100429.03;1024827;28;20500;-54
2023/12/29 02:26:45;;;;;;;8.63;1.30;;;;;;;9.12;100.00;100430.28;1022093;28;20307;-52
2023/12/29 02:28:03;;;;;;;6.97;2.78;;;;;;;9.08;100.00;100419.28;1023668;28;20321;-52
2023/12/29 02:29:02;;;;;;;6.30;1.20;;;;;;;9.11;100.00;100418.03;1027937;28;20494;-55
2023/12/29 02:30:05;;;;;;;2.13;0.98;;;;;;;9.17;100.00;100422.47;1037975;28;20117;-46
2023/12/29 02:31:09;;;;;;;5.78;1.00;;;;;;;9.14;100.00;100414.94;1033666;28;20316;-49
2023/12/29 02:33:31;;;;;;;3.35;1.65;;;;;;;9.21;100.00;100426.31;1026634;28;20051;-54
2023/12/29 02:34:56;;;;;;;7.78;1.45;;;;;;;9.15;100.00;100419.22;1036541;28;20878;-51
2023/12/29 02:35:48;;;;;;;13.15;1.48;;;;;;;9.21;100.00;100423.66;1029409;28;20298;-55
2023/12/29 02:36:56;;;;;;;9.05;1.75;;;;;;;9.18;100.00;100413.47;1027302;28;20649;-48
2023/12/29 02:38:35;;;;;;;10.13;1.95;;;;;;;9.07;100.00;100422.97;1035723;28;20332;-46
2023/12/29 02:39:28;;;;;;;;;;;;;;;;;;;;;
2023/12/29 02:40:16;;;;;;;;;;;;;;;8.93;100.00;100422.22;1029328;28;20321;-47
2023/12/29 02:41:21;;;;;;;6.00;1.70;;;;;;;8.86;100.00;100432.09;1027935;28;20442;-55
2023/12/29 02:42:15;;;;;;;3.50;1.10;;;;;;;8.84;100.00;100422.72;1024522;28;20315;-48
2023/12/29 02:43:18;;;;;;;6.47;2.05;;;;;;;8.85;100.00;100425.16;1024696;28;20310;-48
2023/12/29 02:44:00;;;;;;;2.13;1.15;;;;;;;8.85;100.00;100429.66;1029325;28;20923;-46
2023/12/29 02:44:50;;;;;;;13.45;2.05;;;;;;;8.84;100.00;100420.88;1025987;28;20313;-55
2023/12/29 02:45:37;;;;;;;11.55;3.40;;;;;;;8.85;100.00;100403.91;1027856;28;20782;-56
2023/12/29 02:46:27;;;;;;;3.80;0.95;;;;;;;8.85;100.00;100401.25;1024409;28;20689;-56
2023/12/29 02:47:10;;;;;;;4.45;1.30;;;;;;;8.87;100.00;100406.34;1025423;28;20718;-55
2023/12/29 02:48:24;;;;;;;4.95;1.45;;;;;;;8.88;100.00;100427.38;1026064;28;20326;-45
2023/12/29 02:50:02;;;;;;;7.68;1.25;;;;;;;8.80;100.00;100422.34;1033696;28;21057;-47
2023/12/29 02:50:44;;;;;;;2.13;1.30;;;;;;;8.83;100.00;100426.41;1037248;28;20575;-55
2023/12/29 02:51:30;;;;;;;5.38;1.27;;;;;;;8.82;100.00;100430.09;1037270;28;20288;-48
2023/12/29 02:52:11;;;;;;;8.57;1.95;;;;;;;8.81;100.00;100434.59;1036604;28;20304;-49
2023/12/29 02:53:21;;;;;;;9.45;1.88;;;;;;;8.83;100.00;100429.88;1029925;28;20306;-47
2023/12/29 02:54:09;;;;;;;7.68;1.25;;;;;;;8.84;100.00;100433.34;1021529;29;20325;-55
2023/12/29 02:54:57;;;;;;;6.38;1.33;;;;;;;8.87;100.00;100438.22;1026184;28;20366;-53
2023/12/29 02:56:19;;;;;;;5.60;1.58;;;;;;;8.89;100.00;100431.66;1029186;28;20306;-55
2023/12/29 02:57:34;;;;;;;5.95;1.42;;;;;;;8.90;100.00;100441.25;1030643;28;20388;-49
2023/12/29 02:58:38;;;;;;;8.20;1.40;;;;;;;8.89;100.00;100434.31;1030067;28;20829;-47
2023/12/29 02:59:37;;;;;;;8.82;1.30;;;;;;;8.91;100.00;100416.31;1025809;28;20378;-54
2023/12/29 03:00:33;;;;;;;11.45;1.60;;;;;;;8.92;100.00;100431.22;1024774;28;20343;-46
2023/12/29 03:01:45;;;;;;;8.20;2.58;;;;;;;8.94;100.00;100426.50;1027824;28;20573;-54
2023/12/29 03:02:50;;;;;;;2.28;0.88;;;;;;;8.92;100.00;100433.88;1025509;28;20362;-55
2023/12/29 03:03:39;;;;;;;7.40;2.03;;;;;;;8.92;100.00;100436.53;1029430;28;20324;-55
2023/12/29 03:04:57;;;;;;;6.85;1.55;;;;;;;8.89;100.00;100429.00;1023293;29;20373;-48
2023/12/29 03:06:08;;;;;;;8.85;3.08;;;;;;;8.89;100.00;100436.16;1023672;29;20051;-48
2023/12/29 03:07:39;;;;;;;12.63;1.48;;;;;;;8.90;100.00;100433.28;1031575;28;20302;-47
2023/12/29 03:08:50;;;;;;;3.85;1.30;;;;;;;8.84;100.00;100439.47;1025108;28;20315;-55
2023/12/29 03:09:52;;;;;;;7.20;2.22;;;;;;;8.83;100.00;100421.09;1032249;28;20309;-46
2023/12/29 03:11:23;;;;;;;7.75;1.58;;;;;;;8.85;100.00;100429.66;1031849;28;20328;-49
2023/12/29 03:12:26;;;;;;;5.53;1.60;;;;;;;8.80;100.00;100427.66;1035058;28;20332;-55
2023/12/29 03:13:18;;;;;;;7.05;1.50;;;;;;;8.83;100.00;100437.84;1030159;28;20122;-54
2023/12/29 03:14:07;;;;;;;10.98;2.05;;;;;;;8.80;100.00;100427.66;1022952;28;20322;-54
2023/12/29 03:14:56;;;;;;;10.18;1.60;;;;;;;8.77;100.00;100417.47;1027259;28;20310;-54
2023/12/29 03:16:04;;;;;;;6.30;1.50;;;;;;;8.78;100.00;100437.69;1025733;28;20128;-55
2023/12/29 03:17:17;;;;;;;6.60;1.80;;;;;;;8.77;100.00;100438.72;1027259;28;20855;-56
2023/12/29 03:18:15;;;;;;;6.22;1.40;;;;;;;8.71;100.00;100436.06;1030203;28;20804;-47
2023/12/29 03:19:07;;;;;;;6.35;2.00;;;;;;;8.68;100.00;100445.28;1025130;28;20050;-53
2023/12/29 03:20:16;;;;;;;13.10;1.85;;;;;;;8.64;100.00;100444.09;1029780;28;20313;-48
2023/12/29 03:22:10;;;;;;;3.95;1.25;;;;;;;8.58;100.00;100434.31;1028588;28;20359;-46
2023/12/29 03:23:02;;;;;;;6.18;1.40;;;;;;;8.54;100.00;100444.56;1025462;28;20314;-47
2023/12/29 03:24:22;;;;;;;8.02;1.95;;;;;;;8.54;100.00;100438.44;1030426;28;21101;-46
2023/12/29 03:25:14;;;;;;;5.47;3.05;;;;;;;8.52;100.00;100440.47;1033491;28;20293;-55
2023/12/29 03:26:07;;;;;;;5.72;1.30;;;;;;;8.47;100.00;100434.97;1031217;28;20332;-55
2023/12/29 03:26:44;;;;;;;9.07;1.55;;;;;;;8.50;100.00;100439.88;1024857;28;20050;-54
2023/12/29 03:27:59;;;;;;;7.45;4.50;;;;;;;8.48;100.00;100428.63;1017369;29;20373;-46
2023/12/29 03:28:57;;;;;;;13.20;3.17;;;;;;;8.45;100.00;100432.53;1027104;28;20298;-47
2023/12/29 03:29:34;;;;;;;7.40;1.23;;;;;;;8.46;100.00;100425.38;1030735;28;20054;-55
2023/12/29 03:30:48;;;;;;;6.15;1.38;;;;;;;8.44;100.00;100438.06;1016320;28;20301;-47
2023/12/29 03:32:15;;;;;;;10.57;3.13;;;;;;;8.39;100.00;100435.22;1025767;28;20406;-47
2023/12/29 03:33:28;;;;;;;7.03;1.23;;;;;;;8.43;100.00;100434.59;1027226;28;20078;-46
2023/12/29 03:34:54;;;;;;;4.13;1.50;;;;;;;8.43;100.00;100425.81;1035938;28;20297;-47
2023/12/29 03:37:15;;;;;;;8.45;1.92;;;;;;;8.40;100.00;100431.53;1023265;29;20295;-46
2023/12/29 03:38:16;;;;;;;14.30;1.77;;;;;;;8.36;100.00;100420.53;1027415;28;20313;-46
2023/12/29 03:38:55;;;;;;;11.75;2.40;;;;;;;8.38;100.00;100423.81;1020725;29;20048;-55
2023/12/29 03:39:26;;;;;;;6.70;2.72;;;;;;;8.36;100.00;100425.84;1025067;28;20787;-55
2023/12/29 03:39:58;;;;;;;6.57;1.42;;;;;;;8.36;100.00;100431.97;1028900;28;20304;-53
2023/12/29 03:40:30;;;;;;;3.72;1.60;;;;;;;8.39;100.00;100424.63;1031908;28;20305;-55
2023/12/29 03:41:03;;;;;;;12.02;1.67;;;;;;;8.40;100.00;100426.25;1034799;28;20311;-46
2023/12/29 03:41:34;;;;;;;10.50;1.85;;;;;;;8.39;100.00;100432.56;1030494;28;20325;-48
2023/12/29 03:42:06;;;;;;;7.65;2.33;;;;;;;8.36;100.00;100418.69;1026303;28;20864;-49
2023/12/29 03:42:39;;;;;;;8.45;2.72;;;;;;;8.36;100.00;100416.06;1026260;28;20314;-50
2023/12/29 03:43:11;;;;;;;9.95;2.42;;;;;;;8.41;100.00;100428.69;1027121;28;20362;-47
2023/12/29 03:43:43;;;;;;;9.15;2.25;;;;;;;8.40;100.00;100426.25;1030416;28;20301;-47
2023/12/29 03:44:15;;;;;;;12.85;2.42;;;;;;;8.37;100.00;100416.88;1031407;28;20403;-49
2023/12/29 03:44:47;;;;;;;29.52;2.65;;;;;;;8.42;100.00;100434.81;1034426;28;20315;-46
2023/12/29 03:45:19;;;;;;;5.45;1.83;;;;;;;8.36;100.00;100418.69;1034609;28;20687;-49
2023/12/29 03:45:51;;;;;;;6.60;2.10;;;;;;;8.37;100.00;100422.16;1030631;28;20301;-49
2023/12/29 03:46:23;;;;;;;17.60;2.22;;;;;;;8.38;100.00;100428.28;1030383;28;20372;-55
2023/12/29 03:46:55;;;;;;;9.55;2.10;;;;;;;8.39;100.00;100424.63;1031172;28;20355;-55
2023/12/29 03:47:27;;;;;;;11.98;2.78;;;;;;;8.39;100.00;100419.31;1031657;28;20301;-56
2023/12/29 03:47:59;;;;;;;10.32;2.05;;;;;;;8.35;100.00;100425.03;1030562;28;20301;-55
2023/12/29 03:48:31;;;;;;;9.77;2.05;;;;;;;8.38;100.00;100430.94;1030675;28;20309;-55
2023/12/29 03:49:03;;;;;;;10.25;2.42;;;;;;;8.40;100.00;100428.91;1030917;28;20305;-55
2023/12/29 03:49:35;;;;;;;12.48;3.15;;;;;;;8.41;100.00;100427.88;1030505;28;20483;-56
2023/12/29 03:50:07;;;;;;;16.75;3.15;;;;;;;8.41;100.00;100430.53;1030611;28;20471;-54
2023/12/29 03:50:40;;;;;;;14.07;2.85;;;;;;;8.42;100.00;100430.31;1030792;28;20297;-56
2023/12/29 03:51:14;;;;;;;14.18;2.63;;;;;;;8.43;100.00;100431.94;1030244;28;20312;-49
2023/12/29 03:51:46;;;;;;;7.50;2.13;;;;;;;8.41;100.00;100427.88;1030141;28;20309;-47
2023/12/29 03:52:19;;;;;;;9.70;1.92;;;;;;;8.45;100.00;100421.09;1031587;28;21008;-50
2023/12/29 03:52:51;;;;;;;8.00;2.22;;;;;;;8.43;100.00;100423.16;1035267;28;20753;-49
2023/12/29 03:53:23;;;;;;;10.25;2.15;;;;;;;8.42;100.00;100424.19;1032434;28;20301;-49
2023/12/29 03:53:54;;;;;;;12.65;3.45;;;;;;;8.42;100.00;100424.19;1030455;28;20365;-48
2023/12/29 03:54:26;;;;;;;11.05;2.60;;;;;;;8.39;100.00;100437.88;1030568;28;20321;-47
2023/12/29 03:54:58;;;;;;;13.93;4.13;;;;;;;8.42;100.00;100424.19;1030554;28;20407;-47
2023/12/29 03:55:29;;;;;;;11.35;2.10;;;;;;;8.41;100.00;100423.38;1030319;28;20312;-46
2023/12/29 03:56:08;;;;;;;10.15;2.35;;;;;;;8.45;100.00;100418.44;1030368;28;20301;-47
2023/12/29 03:56:39;;;;;;;9.82;3.05;;;;;;;8.38;100.00;100418.50;1030967;28;20328;-46
2023/12/29 03:57:11;;;;;;;12.57;2.63;;;;;;;8.41;100.00;100417.25;1032595;28;20311;-46
2023/12/29 03:57:44;;;;;;;9.50;2.25;;;;;;;8.43;100.00;100420.50;1032935;28;20419;-47
2023/12/29 03:58:16;;;;;;;12.50;3.53;;;;;;;8.39;100.00;100424.63;1030630;28;20628;-47
2023/12/29 03:58:48;;;;;;;8.13;2.35;;;;;;;8.41;100.00;100411.94;1030601;28;20312;-49
2023/12/29 03:59:19;;;;;;;16.40;3.60;;;;;;;8.42;100.00;100425.00;1031651;28;20324;-49
2023/12/29 03:59:51;;;;;;;10.18;2.30;;;;;;;8.44;100.00;100416.81;1034176;28;20317;-49
2023/12/29 04:00:24;;;;;;;11.70;2.15;;;;;;;8.42;100.00;100429.50;1034372;28;20699;-48
2023/12/29 04:00:55;;;;;;;15.07;3.10;;;;;;;8.46;100.00;100425.38;1034189;28;20347;-48
2023/12/29 04:01:27;;;;;;;9.48;2.40;;;;;;;8.43;100.00;100431.94;1030729;28;20305;-49
2023/12/29 04:02:00;;;;;;;16.27;3.67;;;;;;;8.43;100.00;100431.13;1034360;28;20669;-47
2023/12/29 04:02:32;;;;;;;6.57;2.50;;;;;;;8.45;100.00;100432.53;1031645;28;20692;-48
2023/12/29 04:03:04;;;;;;;13.50;3.60;;;;;;;8.48;100.00;100439.25;1030232;28;20400;-49
2023/12/29 04:03:36;;;;;;;7.65;2.00;;;;;;;8.45;100.00;100435.19;1031001;28;20707;-50
2023/12/29 04:04:08;;;;;;;11.02;3.00;;;;;;;8.47;100.00;100432.31;1030522;28;20881;-48
2023/12/29 04:04:39;;;;;;;9.68;2.75;;;;;;;8.46;100.00;100436.00;1031017;28;20297;-47
2023/12/29 04:05:11;;;;;;;15.38;4.03;;;;;;;8.46;100.00;100442.13;1029925;28;20368;-47
2023/12/29 04:05:43;;;;;;;11.50;2.47;;;;;;;8.46;100.00;100436.00;1030608;28;20305;-47
2023/12/29 04:06:15;;;;;;;10.30;2.50;;;;;;;8.44;100.00;100433.56;1030409;28;20304;-46
2023/12/29 04:06:47;;;;;;;7.63;2.30;;;;;;;8.40;100.00;100416.44;1030054;28;20695;-55
2023/12/29 04:07:19;;;;;;;6.75;2.38;;;;;;;8.40;100.00;100432.38;1030489;28;20315;-56
2023/12/29 04:07:51;;;;;;;12.93;2.63;;;;;;;8.44;100.00;100449.47;1030461;28;20304;-55
2023/12/29 04:08:22;;;;;;;11.73;2.45;;;;;;;8.44;100.00;100430.09;1031349;28;20301;-56
2023/12/29 04:08:54;;;;;;;6.72;2.40;;;;;;;8.46;100.00;100441.31;1034466;28;20305;-55
2023/12/29 04:09:26;;;;;;;9.02;2.50;;;;;;;8.40;100.00;100437.66;1034763;28;20784;-48
2023/12/29 04:09:58;;;;;;;17.00;2.72;;;;;;;8.38;100.00;100439.72;1034931;28;20659;-49
2023/12/29 04:10:29;;;;;;;7.88;2.33;;;;;;;8.41;100.00;100443.78;1034611;28;20312;-46
2023/12/29 04:11:02;;;;;;;18.23;4.38;;;;;;;8.38;100.00;100444.22;1034284;28;20312;-46
2023/12/29 04:11:33;;;;;;;8.73;2.30;;;;;;;8.41;100.00;100444.59;1032174;28;20379;-55
2023/12/29 04:12:05;;;;;;;10.80;2.40;;;;;;;8.40;100.00;100442.16;1030085;28;20301;-56
2023/12/29 04:12:37;;;;;;;13.55;2.70;;;;;;;8.41;100.00;100439.28;1030507;28;20297;-55
2023/12/29 04:13:08;;;;;;;6.38;2.45;;;;;;;8.42;100.00;100445.41;1030719;28;20333;-56
2023/12/29 04:13:41;;;;;;;9.20;2.40;;;;;;;8.38;100.00;100445.03;1029727;28;20313;-56
2023/12/29 04:14:13;;;;;;;11.05;3.30;;;;;;;8.38;100.00;100444.22;1032175;28;20667;-46
2023/12/29 04:14:45;;;;;;;9.80;2.35;;;;;;;8.35;100.00;100440.97;1030464;28;20387;-50
2023/12/29 04:15:16;;;;;;;14.70;3.25;;;;;;;8.33;100.00;100450.97;1030992;28;20434;-47
2023/12/29 04:15:48;;;;;;;12.23;2.47;;;;;;;8.35;100.00;100442.81;1034605;28;20778;-48
2023/12/29 04:16:20;;;;;;;10.73;2.40;;;;;;;8.36;100.00;100444.44;1034820;28;20304;-49
2023/12/29 04:16:52;;;;;;;10.98;2.80;;;;;;;8.35;100.00;100446.28;1035113;28;20300;-56
2023/12/29 04:17:25;;;;;;;8.35;2.47;;;;;;;8.32;100.00;100435.22;1032156;28;20660;-56
2023/12/29 04:17:57;;;;;;;8.05;2.13;;;;;;;8.33;100.00;100452.78;1034738;28;20304;-55
2023/12/29 04:18:29;;;;;;;16.15;2.50;;;;;;;8.33;100.00;100436.88;1034843;28;20358;-56
2023/12/29 04:19:01;;;;;;;3.67;2.38;;;;;;;8.33;100.00;100439.50;1034802;28;20307;-56
2023/12/29 04:19:33;;;;;;;12.10;2.22;;;;;;;8.30;100.00;100442.59;1034436;28;20399;-47
2023/12/29 04:20:05;;;;;;;12.70;2.35;;;;;;;8.27;100.00;100438.53;1034537;28;20395;-49
2023/12/29 04:20:37;;;;;;;11.57;2.47;;;;;;;8.29;100.00;100439.13;1032191;28;20301;-48
2023/12/29 04:21:13;;;;;;;15.55;4.25;;;;;;;8.30;100.00;100435.44;1030256;28;20305;-48
2023/12/29 04:21:45;;;;;;;10.57;2.85;;;;;;;8.31;100.00;100434.41;1030934;28;20443;-47
2023/12/29 04:22:17;;;;;;;8.55;2.22;;;;;;;8.35;100.00;100438.31;1034378;28;20390;-46
2023/12/29 04:22:48;;;;;;;10.45;2.40;;;;;;;8.31;100.00;100438.91;1034442;28;20376;-47
2023/12/29 04:23:20;;;;;;;10.90;2.40;;;;;;;8.30;100.00;100440.75;1030765;28;20867;-46
2023/12/29 04:23:52;;;;;;;10.18;2.97;;;;;;;8.30;100.00;100440.75;1034085;28;20714;-46